createdAt,value
2024-02-02T00:00:07.980Z,99639.31
2024-02-02T00:02:38.754Z,99644.47
2024-02-02T00:05:06.269Z,99643.75
2024-02-02T00:07:33.672Z,99607.53
2024-02-02T00:10:00.861Z,99638.28
2024-02-02T00:12:28.305Z,99638.78
2024-02-02T00:14:55.328Z,99632.53
2024-02-02T00:17:22.373Z,99636.03
2024-02-02T00:19:49.319Z,99645.88
2024-02-02T00:22:16.237Z,99623.44
2024-02-02T00:24:43.053Z,99637.47
2024-02-02T00:27:09.868Z,99633.38
2024-02-02T00:29:36.805Z,99637.88
2024-02-02T00:32:03.956Z,99631.47
2024-02-02T00:34:30.857Z,99631.34
2024-02-02T00:36:57.734Z,99642.56
2024-02-02T00:39:24.710Z,99627.63
2024-02-02T00:41:51.546Z,99643.75
2024-02-02T00:44:18.321Z,99654.38
2024-02-02T00:46:45.104Z,99657.88
2024-02-02T00:49:11.909Z,99655.75
2024-02-02T00:51:38.792Z,99646.72
2024-02-02T00:54:05.674Z,99658.81
2024-02-02T00:56:32.539Z,99655.69
2024-02-02T00:58:59.384Z,99664.72
2024-02-02T01:01:26.433Z,99612.09
2024-02-02T01:03:53.336Z,99662.53
2024-02-02T01:06:20.317Z,99644.44
2024-02-02T01:08:47.322Z,99643.34
2024-02-02T01:11:14.178Z,99634.41
2024-02-02T01:13:40.971Z,99638.13
2024-02-02T01:16:08.000Z,99593.34
2024-02-02T01:18:34.948Z,99646.06
2024-02-02T01:21:01.829Z,99646.47
2024-02-02T01:23:28.713Z,99655.81
2024-02-02T01:25:55.516Z,99656.88
2024-02-02T01:28:22.364Z,99649.34
2024-02-02T01:30:49.237Z,99637.31
2024-02-02T01:33:16.296Z,99656.63
2024-02-02T01:35:51.098Z,99660.09
2024-02-02T01:38:17.887Z,99664.44
2024-02-02T01:40:45.209Z,99627.84
2024-02-02T01:43:13.021Z,99653.00
2024-02-02T01:45:40.314Z,99654.69
2024-02-02T01:48:09.177Z,99656.69
2024-02-02T01:50:36.185Z,99658.13
2024-02-02T01:53:03.020Z,99627.06
2024-02-02T01:55:29.860Z,99660.88
2024-02-02T01:57:56.744Z,99652.25
2024-02-02T02:00:23.662Z,99640.81
2024-02-02T02:02:50.568Z,99656.44
2024-02-02T02:05:17.428Z,99656.97
2024-02-02T02:07:45.701Z,99608.72
2024-02-02T02:10:14.398Z,99647.72
2024-02-02T02:12:41.820Z,99647.91
2024-02-02T02:15:11.323Z,99649.94
2024-02-02T02:17:40.592Z,99645.13
2024-02-02T02:20:12.078Z,99621.78
2024-02-02T02:22:39.076Z,99618.44
2024-02-02T02:25:06.541Z,99633.75
2024-02-02T02:27:33.963Z,99607.16
2024-02-02T02:30:02.386Z,99628.91
2024-02-02T02:32:29.393Z,99629.63
2024-02-02T02:34:56.537Z,99619.94
2024-02-02T02:37:23.548Z,99616.53
2024-02-02T02:39:50.795Z,99626.09
2024-02-02T02:42:17.526Z,99624.56
2024-02-02T02:44:44.460Z,99508.84
2024-02-02T02:47:12.323Z,99602.34
2024-02-02T02:49:39.506Z,99602.44
2024-02-02T02:52:06.485Z,99621.41
2024-02-02T02:54:33.875Z,99598.13
2024-02-02T02:57:01.958Z,99622.91
2024-02-02T02:59:31.531Z,99627.25
2024-02-02T03:01:58.354Z,99609.97
2024-02-02T03:04:25.228Z,99605.41
2024-02-02T03:06:52.227Z,99608.88
2024-02-02T03:09:19.561Z,99609.66
2024-02-02T03:11:46.362Z,99613.59
2024-02-02T03:14:15.081Z,99611.31
2024-02-02T03:16:41.894Z,99613.84
2024-02-02T03:19:08.802Z,99605.09
2024-02-02T03:21:36.367Z,99619.47
2024-02-02T03:24:03.492Z,99585.56
2024-02-02T03:26:30.273Z,99622.69
2024-02-02T03:28:58.106Z,99611.13
2024-02-02T03:31:25.018Z,99611.91
2024-02-02T03:33:51.989Z,99622.38
2024-02-02T03:36:18.904Z,99618.78
2024-02-02T03:38:45.705Z,99613.47
2024-02-02T03:41:12.483Z,99627.50
2024-02-02T03:43:39.284Z,99623.41
2024-02-02T03:46:06.067Z,99626.09
2024-02-02T03:48:33.050Z,99615.28
2024-02-02T03:50:59.954Z,99602.88
2024-02-02T03:53:26.810Z,99604.59
2024-02-02T03:55:53.653Z,99592.13
2024-02-02T03:58:20.446Z,99619.72
2024-02-02T04:00:47.517Z,99603.25
2024-02-02T04:03:14.615Z,99603.41
2024-02-02T04:05:41.629Z,99618.53
2024-02-02T04:08:08.582Z,99634.44
2024-02-02T04:10:35.363Z,99633.38
2024-02-02T04:13:03.450Z,99640.34
2024-02-02T04:15:33.150Z,99631.06
2024-02-02T04:18:00.744Z,99641.50
2024-02-02T04:20:27.720Z,99633.72
2024-02-02T04:22:55.618Z,99631.38
2024-02-02T04:25:22.754Z,99625.28
2024-02-02T04:27:49.606Z,99637.38
2024-02-02T04:30:18.292Z,99514.63
2024-02-02T04:32:45.382Z,99640.75
2024-02-02T04:35:12.279Z,99641.31
2024-02-02T04:37:43.416Z,99639.22
2024-02-02T04:40:13.281Z,99635.41
2024-02-02T04:42:40.082Z,99643.97
2024-02-02T04:45:07.115Z,99638.88
2024-02-02T04:47:34.132Z,99623.31
2024-02-02T04:50:00.989Z,99644.69
2024-02-02T04:52:27.820Z,99644.94
2024-02-02T04:54:56.870Z,99651.31
2024-02-02T04:57:23.824Z,99654.69
2024-02-02T04:59:50.816Z,99654.03
2024-02-02T05:02:17.861Z,99649.56
2024-02-02T05:04:44.806Z,99659.81
2024-02-02T05:07:12.075Z,99655.91
2024-02-02T05:09:48.097Z,99666.47
2024-02-02T05:12:16.996Z,99666.41
2024-02-02T05:14:44.076Z,99679.44
2024-02-02T05:17:10.885Z,99678.59
2024-02-02T05:19:37.747Z,99669.91
2024-02-02T05:22:04.845Z,99689.66
2024-02-02T05:24:43.162Z,99686.41
2024-02-02T05:27:17.416Z,99691.66
2024-02-02T05:29:45.519Z,99707.19
2024-02-02T05:32:12.557Z,99699.59
2024-02-02T05:34:39.449Z,99704.75
2024-02-02T05:37:06.396Z,99724.81
2024-02-02T05:39:33.456Z,99723.94
2024-02-02T05:42:01.403Z,99714.88
2024-02-02T05:44:28.389Z,99710.88
2024-02-02T05:46:55.354Z,99729.16
2024-02-02T05:49:22.746Z,99668.59
2024-02-02T05:51:49.763Z,99717.59
2024-02-02T05:54:16.727Z,99710.28
2024-02-02T05:56:43.574Z,99554.72
2024-02-02T05:59:10.713Z,99703.31
2024-02-02T06:01:37.601Z,99704.13
2024-02-02T06:04:05.114Z,99714.13
2024-02-02T06:06:32.218Z,99694.78
2024-02-02T06:09:00.767Z,99705.19
2024-02-02T06:11:28.005Z,99722.63
2024-02-02T06:13:57.297Z,99720.78
2024-02-02T06:16:26.055Z,99720.75
2024-02-02T06:18:53.084Z,99731.06
2024-02-02T06:21:20.035Z,99732.97
2024-02-02T06:23:47.102Z,99736.13
2024-02-02T06:26:13.986Z,99732.84
2024-02-02T06:28:40.827Z,99720.97
2024-02-02T06:31:07.626Z,99734.03
2024-02-02T06:33:34.589Z,99734.91
2024-02-02T06:36:01.514Z,99707.97
2024-02-02T06:38:28.338Z,99732.19
2024-02-02T06:40:55.139Z,99731.38
2024-02-02T06:43:22.353Z,99740.09
2024-02-02T06:45:49.817Z,99742.69
2024-02-02T06:48:17.221Z,99760.78
2024-02-02T06:50:45.764Z,99762.56
2024-02-02T06:53:12.945Z,99756.31
2024-02-02T06:55:39.853Z,99766.53
2024-02-02T06:58:20.335Z,99762.31
2024-02-02T07:00:47.580Z,99775.28
2024-02-02T07:03:14.396Z,99782.03
2024-02-02T07:05:44.903Z,99760.50
2024-02-02T07:08:11.858Z,99783.81
2024-02-02T07:10:38.711Z,99775.84
2024-02-02T07:13:05.659Z,99783.59
2024-02-02T07:15:36.576Z,99794.72
2024-02-02T07:18:04.254Z,99798.25
2024-02-02T07:20:31.591Z,99800.81
2024-02-02T07:23:02.165Z,99796.34
2024-02-02T07:25:38.007Z,99808.06
2024-02-02T07:28:09.252Z,99807.09
2024-02-02T07:30:45.121Z,99796.00
2024-02-02T07:33:42.818Z,99786.22
2024-02-02T07:36:34.831Z,99813.78
2024-02-02T07:39:02.477Z,99802.53
2024-02-02T07:41:30.502Z,99805.22
2024-02-02T07:44:01.408Z,99821.28
2024-02-02T07:46:28.953Z,99823.41
2024-02-02T07:48:56.348Z,99825.78
2024-02-02T07:51:25.420Z,99825.66
2024-02-02T07:53:52.703Z,99817.31
2024-02-02T07:56:21.726Z,99829.16
2024-02-02T07:58:48.771Z,99823.94
2024-02-02T08:01:16.331Z,99820.41
2024-02-02T08:03:43.238Z,99812.25
2024-02-02T08:06:10.565Z,99795.19
2024-02-02T08:08:37.859Z,99792.72
2024-02-02T08:11:04.915Z,99810.22
2024-02-02T08:13:32.117Z,99813.69
2024-02-02T08:15:59.359Z,99801.34
2024-02-02T08:18:26.668Z,99803.03
2024-02-02T08:20:53.698Z,99819.41
2024-02-02T08:23:20.770Z,99792.25
2024-02-02T08:25:47.681Z,99804.47
2024-02-02T08:28:14.582Z,99808.59
2024-02-02T08:30:41.608Z,99807.41
2024-02-02T08:33:08.928Z,99825.81
2024-02-02T08:35:35.673Z,99827.00
2024-02-02T08:38:07.428Z,99802.63
2024-02-02T08:40:39.957Z,99807.63
2024-02-02T08:43:18.106Z,99812.09
2024-02-02T08:46:09.226Z,99817.44
2024-02-02T08:48:41.974Z,99807.41
2024-02-02T08:51:24.856Z,99816.13
2024-02-02T08:54:04.178Z,99806.19
2024-02-02T08:56:31.058Z,99811.16
2024-02-02T08:58:58.405Z,99810.78
2024-02-02T09:01:39.826Z,99801.44
2024-02-02T09:04:07.119Z,99791.53
2024-02-02T09:06:44.704Z,99811.47
2024-02-02T09:09:16.004Z,99809.72
2024-02-02T09:11:48.773Z,99804.03
2024-02-02T09:14:19.124Z,99793.31
2024-02-02T09:16:51.833Z,99807.91
2024-02-02T09:19:31.185Z,99806.78
2024-02-02T09:22:02.472Z,99809.31
2024-02-02T09:24:48.095Z,99799.31
2024-02-02T09:27:18.964Z,99815.88
2024-02-02T09:29:48.342Z,99715.91
2024-02-02T09:32:19.142Z,99818.31
2024-02-02T09:34:47.172Z,99814.25
2024-02-02T09:37:32.541Z,99811.66
2024-02-02T09:39:59.596Z,99812.00
2024-02-02T09:42:49.221Z,99815.53
2024-02-02T09:45:40.686Z,99810.63
2024-02-02T09:48:18.827Z,99816.84
2024-02-02T09:50:56.486Z,99809.00
2024-02-02T09:53:45.871Z,99813.91
2024-02-02T09:56:24.848Z,99809.38
2024-02-02T09:59:05.564Z,99806.13
2024-02-02T10:01:37.989Z,99812.69
2024-02-02T10:04:21.017Z,99806.25
2024-02-02T10:07:04.815Z,99790.19
2024-02-02T10:10:11.791Z,99808.38
2024-02-02T10:12:44.530Z,99797.13
2024-02-02T10:15:23.431Z,99812.84
2024-02-02T10:18:10.290Z,99829.63
2024-02-02T10:20:55.129Z,99822.41
2024-02-02T10:23:41.403Z,99806.97
2024-02-02T10:26:37.740Z,99810.25
2024-02-02T10:29:17.572Z,99793.66
2024-02-02T10:32:12.818Z,99789.78
2024-02-02T10:35:04.393Z,99785.84
2024-02-02T10:37:35.930Z,99778.53
2024-02-02T10:40:08.633Z,99786.56
2024-02-02T10:42:45.946Z,99786.56
2024-02-02T10:45:20.435Z,99774.94
2024-02-02T10:48:08.546Z,99774.31
2024-02-02T10:51:00.510Z,99767.13
2024-02-02T10:54:10.330Z,99760.38
2024-02-02T10:57:19.131Z,99760.72
2024-02-02T11:00:11.518Z,99751.00
2024-02-02T11:03:03.548Z,99755.28
2024-02-02T11:06:26.582Z,99742.13
2024-02-02T11:09:02.093Z,99740.13
2024-02-02T11:11:34.510Z,99719.66
2024-02-02T11:14:24.806Z,99739.47
2024-02-02T11:17:00.486Z,99730.78
2024-02-02T11:19:46.140Z,99728.06
2024-02-02T11:22:25.188Z,99730.94
2024-02-02T11:25:01.200Z,99726.44
2024-02-02T11:27:37.747Z,99716.78
2024-02-02T11:30:08.554Z,99717.16
2024-02-02T11:32:41.490Z,99711.44
2024-02-02T11:35:26.679Z,99707.06
2024-02-02T11:38:40.701Z,99700.75
2024-02-02T11:41:19.637Z,99696.81
2024-02-02T11:43:46.874Z,99691.88
2024-02-02T11:46:15.243Z,99696.59
2024-02-02T11:48:44.903Z,99698.41
2024-02-02T11:51:12.732Z,99680.47
2024-02-02T11:53:53.248Z,99677.31
2024-02-02T11:56:31.100Z,99684.28
2024-02-02T11:59:28.148Z,99673.94
2024-02-02T12:02:26.038Z,99677.34
2024-02-02T12:05:22.463Z,99677.41
2024-02-02T12:08:06.885Z,99672.53
2024-02-02T12:10:40.509Z,99663.22
2024-02-02T12:13:10.328Z,99661.19
2024-02-02T12:15:37.356Z,99655.09
2024-02-02T12:18:06.360Z,99645.16
2024-02-02T12:20:34.316Z,99639.97
2024-02-02T12:23:01.293Z,99629.78
2024-02-02T12:25:29.194Z,99629.53
2024-02-02T12:27:56.163Z,99628.47
2024-02-02T12:30:23.610Z,99621.38
2024-02-02T12:32:58.978Z,99608.41
2024-02-02T12:35:27.466Z,99607.63
2024-02-02T12:37:54.596Z,99587.88
2024-02-02T12:40:21.871Z,99595.53
2024-02-02T12:42:49.354Z,99613.41
2024-02-02T12:45:16.751Z,99614.38
2024-02-02T12:47:44.003Z,99614.94
2024-02-02T12:50:22.535Z,99614.53
2024-02-02T12:52:52.358Z,99610.31
2024-02-02T12:55:22.297Z,99610.38
2024-02-02T12:57:49.364Z,99604.66
2024-02-02T13:00:16.950Z,99614.94
2024-02-02T13:02:46.470Z,99606.09
2024-02-02T13:05:17.975Z,99604.19
2024-02-02T13:07:49.898Z,99603.78
2024-02-02T13:10:50.057Z,99600.91
2024-02-02T13:13:24.917Z,99592.28
2024-02-02T13:15:52.886Z,99600.25
2024-02-02T13:18:21.428Z,99597.09
2024-02-02T13:20:51.289Z,99598.72
2024-02-02T13:23:29.995Z,99590.06
2024-02-02T13:26:04.719Z,99592.19
2024-02-02T13:28:40.371Z,99586.63
2024-02-02T13:31:13.418Z,99594.34
2024-02-02T13:33:46.450Z,99590.13
2024-02-02T13:36:18.348Z,99588.16
2024-02-02T13:38:48.203Z,99598.69
2024-02-02T13:41:20.436Z,99582.44
2024-02-02T13:44:00.176Z,99592.03
2024-02-02T13:46:27.464Z,99588.84
2024-02-02T13:48:59.424Z,99593.72
2024-02-02T13:51:27.892Z,99593.06
2024-02-02T13:53:58.776Z,99590.31
2024-02-02T13:56:28.108Z,99572.84
2024-02-02T13:58:55.507Z,99577.13
2024-02-02T14:01:24.115Z,99568.19
2024-02-02T14:03:53.239Z,99549.53
2024-02-02T14:06:21.089Z,99565.72
2024-02-02T14:08:49.761Z,99559.72
2024-02-02T14:11:27.771Z,99561.28
2024-02-02T14:13:55.950Z,99559.22
2024-02-02T14:16:24.210Z,99555.38
2024-02-02T14:19:05.873Z,99551.81
2024-02-02T14:21:34.635Z,99549.06
2024-02-02T14:24:19.786Z,99534.28
2024-02-02T14:26:57.294Z,99540.97
2024-02-02T14:29:26.573Z,99552.00
2024-02-02T14:31:54.978Z,99558.78
2024-02-02T14:34:22.524Z,99544.03
2024-02-02T14:36:49.437Z,99555.88
2024-02-02T14:39:26.266Z,99554.16
2024-02-02T14:41:55.689Z,99544.34
2024-02-02T14:44:23.644Z,99567.00
2024-02-02T14:46:50.614Z,99567.56
2024-02-02T14:49:18.382Z,99555.47
2024-02-02T14:51:45.415Z,99540.34
2024-02-02T14:54:12.568Z,99555.16
2024-02-02T14:56:39.749Z,99511.03
2024-02-02T14:59:10.033Z,99557.28
2024-02-02T15:01:40.649Z,99517.59
2024-02-02T15:04:09.703Z,99536.00
2024-02-02T15:06:39.146Z,99542.78
2024-02-02T15:09:15.551Z,99530.47
2024-02-02T15:11:43.732Z,99535.41
2024-02-02T15:14:11.054Z,99545.50
2024-02-02T15:16:38.174Z,99554.59
2024-02-02T15:19:05.481Z,99551.06
2024-02-02T15:21:33.339Z,99557.22
2024-02-02T15:24:00.382Z,99554.63
2024-02-02T15:26:27.543Z,99559.31
2024-02-02T15:28:54.307Z,99546.53
2024-02-02T15:31:22.911Z,99547.09
2024-02-02T15:33:50.109Z,99550.19
2024-02-02T15:36:17.161Z,99544.38
2024-02-02T15:39:06.061Z,99535.81
2024-02-02T15:41:33.368Z,99537.25
2024-02-02T15:44:00.723Z,99544.69
2024-02-02T15:46:27.551Z,99526.84
2024-02-02T15:48:55.649Z,99541.78
2024-02-02T15:51:24.243Z,99525.72
2024-02-02T15:53:51.317Z,99535.66
2024-02-02T15:56:19.640Z,99546.53
2024-02-02T15:58:46.890Z,99537.94
2024-02-02T16:01:30.396Z,99540.50
2024-02-02T16:04:15.019Z,99543.06
2024-02-02T16:07:02.693Z,99551.28
2024-02-02T16:09:42.498Z,99575.59
2024-02-02T16:12:34.793Z,99562.41
2024-02-02T16:15:20.016Z,99542.72
2024-02-02T16:20:41.110Z,99558.13
2024-02-02T16:23:10.536Z,99560.03
2024-02-02T16:25:40.264Z,99561.06
2024-02-02T16:28:13.286Z,99543.28
2024-02-02T16:30:50.389Z,99558.13
2024-02-02T16:33:23.926Z,99549.53
2024-02-02T16:35:54.496Z,99548.97
2024-02-02T16:38:24.652Z,99556.53
2024-02-02T16:40:53.840Z,99544.25
2024-02-02T16:43:23.087Z,99552.84
2024-02-02T16:45:51.831Z,99558.66
2024-02-02T16:48:23.420Z,99535.38
2024-02-02T16:50:58.279Z,99528.56
2024-02-02T16:53:25.657Z,99564.81
2024-02-02T16:55:52.927Z,99559.16
2024-02-02T16:58:20.649Z,99570.69
2024-02-02T17:00:48.451Z,99578.28
2024-02-02T17:03:15.772Z,99583.88
2024-02-02T17:05:42.700Z,99566.72
2024-02-02T17:08:09.677Z,99554.41
2024-02-02T17:10:36.502Z,99578.41
2024-02-02T17:13:03.665Z,99563.28
2024-02-02T17:15:31.276Z,99568.78
2024-02-02T17:17:58.857Z,99545.56
2024-02-02T17:20:27.170Z,99559.28
2024-02-02T17:22:55.378Z,99527.97
2024-02-02T17:25:22.257Z,99557.72
2024-02-02T17:27:49.154Z,99558.75
2024-02-02T17:30:18.047Z,99555.91
2024-02-02T17:32:45.113Z,99554.50
2024-02-02T17:35:11.972Z,99564.97
2024-02-02T17:37:40.055Z,99555.38
2024-02-02T17:40:08.589Z,99571.53
2024-02-02T17:42:36.151Z,99522.00
2024-02-02T17:45:03.092Z,99568.53
2024-02-02T17:47:29.887Z,99546.50
2024-02-02T17:49:58.139Z,99559.78
2024-02-02T17:52:25.953Z,99563.44
2024-02-02T17:54:52.881Z,99569.84
2024-02-02T17:57:20.089Z,99559.91
2024-02-02T17:59:46.882Z,99566.50
2024-02-02T18:02:13.894Z,99552.19
2024-02-02T18:04:40.858Z,99546.78
2024-02-02T18:07:10.537Z,99560.31
2024-02-02T18:09:40.192Z,99493.53
2024-02-02T18:12:14.194Z,99547.56
2024-02-02T18:14:41.836Z,99553.38
2024-02-02T18:17:08.902Z,99543.78
2024-02-02T18:19:35.817Z,99546.31
2024-02-02T18:22:02.722Z,99536.66
2024-02-02T18:24:29.592Z,99543.97
2024-02-02T18:26:56.424Z,99542.47
2024-02-02T18:29:23.218Z,99537.84
2024-02-02T18:31:50.391Z,99525.38
2024-02-02T18:34:17.142Z,99538.53
2024-02-02T18:36:44.084Z,99525.38
2024-02-02T18:39:13.809Z,99512.75
2024-02-02T18:41:40.864Z,99517.69
2024-02-02T18:44:11.642Z,99518.56
2024-02-02T18:46:38.479Z,99491.53
2024-02-02T18:49:05.891Z,99497.78
2024-02-02T18:51:33.529Z,99492.69
2024-02-02T18:54:00.420Z,99483.25
2024-02-02T18:56:31.479Z,99479.56
2024-02-02T18:58:58.510Z,99496.78
2024-02-02T19:01:29.643Z,99480.16
2024-02-02T19:03:57.593Z,99470.13
2024-02-02T19:06:25.924Z,99438.19
2024-02-02T19:08:53.635Z,99485.47
2024-02-02T19:11:22.639Z,99485.09
2024-02-02T19:13:50.511Z,99421.50
2024-02-02T19:16:22.787Z,99390.53
2024-02-02T19:18:51.230Z,99382.50
2024-02-02T19:21:20.603Z,99405.69
2024-02-02T19:23:51.780Z,99442.91
2024-02-02T19:26:20.141Z,99431.81
2024-02-02T19:28:47.730Z,99445.31
2024-02-02T19:31:23.519Z,99447.38
2024-02-02T19:33:52.899Z,99429.31
2024-02-02T19:36:27.169Z,99410.59
2024-02-02T19:38:55.976Z,99395.66
2024-02-02T19:41:27.302Z,99437.06
2024-02-02T19:43:55.482Z,99421.28
2024-02-02T19:46:31.050Z,99414.06
2024-02-02T19:49:00.838Z,99364.88
2024-02-02T19:51:30.135Z,99393.16
2024-02-02T19:53:58.359Z,99374.59
2024-02-02T19:56:26.126Z,99404.81
2024-02-02T19:58:53.936Z,99376.47
2024-02-02T20:01:22.925Z,99398.28
2024-02-02T20:03:51.810Z,99408.75
2024-02-02T20:06:21.723Z,99401.69
2024-02-02T20:08:51.984Z,99380.63
2024-02-02T20:11:26.990Z,99386.38
2024-02-02T20:13:54.911Z,99385.56
2024-02-02T20:16:22.643Z,99357.38
2024-02-02T20:18:50.907Z,99337.91
2024-02-02T20:21:22.530Z,99378.41
2024-02-02T20:23:53.152Z,99366.19
2024-02-02T20:26:21.450Z,99282.56
2024-02-02T20:28:56.382Z,99323.16
2024-02-02T20:31:24.779Z,99366.91
2024-02-02T20:33:53.182Z,99368.19
2024-02-02T20:36:21.770Z,99304.75
2024-02-02T20:38:49.670Z,99338.34
2024-02-02T20:41:24.071Z,99314.31
2024-02-02T20:43:53.910Z,99355.47
2024-02-02T20:46:22.032Z,99347.00
2024-02-02T20:48:50.803Z,99287.66
2024-02-02T20:51:18.897Z,99267.13
2024-02-02T20:53:46.389Z,99283.53
2024-02-02T20:56:14.090Z,99242.16
2024-02-02T20:58:41.333Z,99307.66
2024-02-02T21:01:08.854Z,99324.88
2024-02-02T21:03:37.340Z,99285.25
2024-02-02T21:06:05.503Z,99227.28
2024-02-02T21:08:33.182Z,99290.22
2024-02-02T21:11:02.233Z,99291.78
2024-02-02T21:13:29.690Z,99251.47
2024-02-02T21:15:57.530Z,99312.72
2024-02-02T21:18:25.657Z,99307.59
2024-02-02T21:20:54.636Z,99296.75
2024-02-02T21:23:22.282Z,99283.47
2024-02-02T21:25:50.041Z,99164.72
2024-02-02T21:28:18.940Z,99316.41
2024-02-02T21:30:47.858Z,99207.56
2024-02-02T21:33:19.839Z,99295.47
2024-02-02T21:35:48.685Z,99254.16
2024-02-02T21:38:15.633Z,99256.16
2024-02-02T21:40:42.504Z,99276.88
2024-02-02T21:43:09.589Z,99284.13
2024-02-02T21:45:37.164Z,99217.59
2024-02-02T21:48:04.495Z,99270.84
2024-02-02T21:50:31.516Z,99261.94
2024-02-02T21:53:04.196Z,99213.47
2024-02-02T21:55:31.050Z,99254.94
2024-02-02T21:57:57.829Z,99256.66
2024-02-02T22:00:24.691Z,99257.44
2024-02-02T22:02:51.514Z,99254.13
2024-02-02T22:05:18.388Z,99261.16
2024-02-02T22:07:45.370Z,99192.44
2024-02-02T22:10:12.284Z,99218.13
2024-02-02T22:12:39.822Z,99254.25
2024-02-02T22:15:07.363Z,99258.00
2024-02-02T22:17:34.262Z,99245.91
2024-02-02T22:20:01.067Z,99240.91
2024-02-02T22:22:28.006Z,99228.88
2024-02-02T22:24:55.550Z,99266.41
2024-02-02T22:27:23.872Z,99238.63
2024-02-02T22:29:51.449Z,99261.38
2024-02-02T22:32:21.137Z,99262.44
2024-02-02T22:34:48.414Z,99264.47
2024-02-02T22:37:15.803Z,99195.06
2024-02-02T22:39:42.809Z,99251.03
2024-02-02T22:42:09.651Z,99249.72
2024-02-02T22:44:36.518Z,99250.13
2024-02-02T22:47:03.437Z,99254.78
2024-02-02T22:49:32.406Z,99255.63
2024-02-02T22:51:59.305Z,99243.53
2024-02-02T22:54:26.250Z,99243.03
2024-02-02T22:56:53.193Z,99234.16
2024-02-02T22:59:20.225Z,99236.78
2024-02-02T23:01:47.444Z,99239.03
2024-02-02T23:04:14.242Z,99231.09
2024-02-02T23:06:41.196Z,99233.91
2024-02-02T23:09:08.081Z,99176.81
2024-02-02T23:11:34.900Z,99207.22
2024-02-02T23:14:01.686Z,99207.53
2024-02-02T23:16:28.488Z,99207.03
2024-02-02T23:18:55.469Z,99181.50
2024-02-02T23:21:22.315Z,99199.47
2024-02-02T23:23:49.246Z,99184.22
2024-02-02T23:26:16.132Z,99188.66
2024-02-02T23:28:43.153Z,99187.59
2024-02-02T23:31:09.945Z,99187.13
2024-02-02T23:33:36.937Z,99177.72
2024-02-02T23:36:04.124Z,99163.28
2024-02-02T23:38:31.044Z,99147.44
2024-02-02T23:40:58.009Z,99158.09
2024-02-02T23:43:26.241Z,99137.22
2024-02-02T23:45:53.199Z,99131.91
2024-02-02T23:48:20.151Z,99122.16
2024-02-02T23:50:47.148Z,99111.03
2024-02-02T23:53:14.076Z,99103.09
2024-02-02T23:55:40.911Z,99111.03
2024-02-02T23:58:07.753Z,99088.78
